Time;durP1;ratioP1;P1;durP2;ratioP2;P2;SDS_P1;SDS_P2;PMS_P1;PMS_P2;Temp;Humidity;BMP_temperature;BMP_pressure;BME280_temperature;BME280_humidity;BME280_pressure;Samples;Min_cycle;Max_cycle;Signal;HPM_P1;HPM_P2
2024/03/14 05:02:08;;;;;;;5.00;4.00;;;9.70;97.30;;;;;;5313187;23;20490;-88
2024/03/14 05:04:34;;;;;;;3.17;2.90;;;9.70;97.30;;;;;;4977441;28;20429;-89
2024/03/14 05:07:00;;;;;;;5.53;3.23;;;9.70;97.30;;;;;;4975795;28;20449;-88
2024/03/14 05:09:27;;;;;;;7.53;4.63;;;9.70;97.30;;;;;;4975172;28;20205;-88
2024/03/14 05:11:52;;;;;;;4.13;3.67;;;9.70;97.30;;;;;;4963684;28;20198;-89
2024/03/14 05:14:19;;;;;;;9.13;3.07;;;9.70;97.30;;;;;;4957369;28;20458;-88
2024/03/14 05:16:45;;;;;;;6.60;4.50;;;9.70;97.30;;;;;;4974752;28;20224;-89
2024/03/14 05:19:15;;;;;;;25.97;7.07;;;9.70;97.30;;;;;;4954965;28;20868;-88
2024/03/14 05:21:45;;;;;;;3.97;2.80;;;9.70;97.30;;;;;;4955802;28;20449;-88
2024/03/14 05:24:11;;;;;;;33.00;6.83;;;9.70;97.30;;;;;;4956752;28;20414;-86
2024/03/14 05:26:36;;;;;;;5.30;4.07;;;9.70;97.30;;;;;;4956103;28;20425;-89
2024/03/14 05:29:02;;;;;;;5.50;4.00;;;9.70;97.30;;;;;;4955197;28;20170;-88
2024/03/14 05:31:27;;;;;;;3.90;3.60;;;9.70;97.30;;;;;;4958630;28;20284;-88
2024/03/14 05:33:53;;;;;;;8.33;3.93;;;9.70;97.30;;;;;;4964328;28;20199;-85
2024/03/14 05:36:28;;;;;;;3.70;3.50;;;9.70;97.30;;;;;;4963887;28;20182;-89
2024/03/14 05:39:06;;;;;;;9.73;5.10;;;9.70;97.30;;;;;;4948528;28;20461;-88
2024/03/14 05:44:57;;;;;;;5.10;3.03;;;9.80;97.30;;;;;;4937465;28;20421;-87
2024/03/14 05:47:38;;;;;;;4.93;3.80;;;9.80;97.30;;;;;;4954544;28;20432;-89
2024/03/14 05:50:09;;;;;;;2.70;2.20;;;9.80;97.30;;;;;;4956799;28;20426;-89
2024/03/14 05:52:47;;;;;;;4.40;2.23;;;9.80;97.30;;;;;;4957221;28;20480;-89
2024/03/14 05:55:16;;;;;;;12.10;4.87;;;9.80;97.30;;;;;;4944022;28;20481;-88
2024/03/14 05:58:06;;;;;;;2.77;2.43;;;9.80;97.30;;;;;;4970219;28;20473;-87
2024/03/14 06:00:37;;;;;;;11.63;4.67;;;9.80;97.30;;;;;;4952395;28;20423;-87
2024/03/14 06:03:09;;;;;;;2.23;2.00;;;9.80;97.30;;;;;;4956797;28;20818;-87
2024/03/14 06:05:37;;;;;;;4.20;2.70;;;9.80;97.30;;;;;;4947437;28;20422;-89
2024/03/14 06:08:38;;;;;;;4.97;3.50;;;9.80;97.30;;;;;;4955073;28;20854;-89
2024/03/14 06:11:17;;;;;;;9.43;2.60;;;9.80;97.30;;;;;;4952040;28;21023;-88
2024/03/14 06:14:18;;;;;;;4.03;3.00;;;9.80;97.30;;;;;;4950010;28;20846;-88
2024/03/14 06:16:46;;;;;;;4.93;1.90;;;9.80;97.30;;;;;;4861801;29;20419;-88
2024/03/14 06:19:21;;;;;;;4.30;1.83;;;9.80;97.30;;;;;;4855618;29;20876;-89
2024/03/14 06:21:47;;;;;;;7.20;3.10;;;9.90;97.30;;;;;;4932449;28;20452;-87
2024/03/14 06:24:16;;;;;;;11.10;3.43;;;9.80;97.30;;;;;;4976366;23;20434;-81
2024/03/14 06:26:42;;;;;;;3.77;1.97;;;9.90;97.30;;;;;;4976526;28;20198;-83
2024/03/14 06:29:09;;;;;;;3.77;2.30;;;9.90;97.30;;;;;;4973342;28;20413;-84
2024/03/14 06:31:35;;;;;;;6.90;2.70;;;9.90;97.30;;;;;;4974140;28;20977;-83
2024/03/14 06:34:03;;;;;;;5.10;2.70;;;9.90;97.30;;;;;;4973370;28;20453;-83
2024/03/14 06:36:28;;;;;;;4.77;2.50;;;9.90;97.30;;;;;;4968818;28;20435;-83
2024/03/14 06:38:55;;;;;;;2.57;2.37;;;10.00;97.30;;;;;;4968990;28;20414;-83
2024/03/14 06:41:21;;;;;;;5.40;2.63;;;10.00;97.30;;;;;;4969891;28;20179;-83
2024/03/14 06:43:47;;;;;;;3.10;2.50;;;10.00;97.30;;;;;;4970103;28;20588;-83
2024/03/14 06:46:15;;;;;;;5.23;2.87;;;10.10;97.30;;;;;;4970411;28;20536;-83
2024/03/14 06:48:41;;;;;;;8.90;5.10;;;10.10;97.30;;;;;;4971227;28;20422;-83
2024/03/14 06:51:06;;;;;;;6.43;3.33;;;10.10;97.30;;;;;;4969146;28;20432;-83
2024/03/14 06:53:32;;;;;;;2.17;2.00;;;10.20;97.30;;;;;;4970091;28;20333;-82
2024/03/14 06:55:57;;;;;;;1.97;1.87;;;10.30;97.30;;;;;;4971153;28;20221;-84
2024/03/14 06:58:24;;;;;;;3.70;3.17;;;10.30;97.30;;;;;;4969541;28;20184;-83
2024/03/14 07:00:49;;;;;;;7.60;4.13;;;10.50;97.30;;;;;;4971802;28;20178;-83
2024/03/14 07:03:16;;;;;;;2.67;2.47;;;10.60;97.30;;;;;;4969235;28;21040;-83
2024/03/14 07:05:43;;;;;;;7.47;3.80;;;10.70;97.30;;;;;;4969109;28;20243;-83
2024/03/14 07:08:11;;;;;;;10.80;3.60;;;10.70;97.30;;;;;;4959917;28;20432;-83
2024/03/14 07:10:39;;;;;;;5.00;3.00;;;10.80;97.30;;;;;;4969923;28;20947;-83
2024/03/14 07:13:07;;;;;;;7.27;4.33;;;10.90;97.30;;;;;;4969201;28;20955;-83
2024/03/14 07:15:35;;;;;;;2.50;2.30;;;10.90;97.30;;;;;;4970907;28;20469;-84
2024/03/14 07:18:02;;;;;;;6.43;2.87;;;11.00;97.30;;;;;;4968954;28;20428;-83
2024/03/14 07:20:33;;;;;;;2.40;2.20;;;11.00;97.30;;;;;;4970237;28;20421;-83
2024/03/14 07:22:59;;;;;;;6.50;2.20;;;11.10;97.30;;;;;;4955721;28;20483;-83
2024/03/14 07:25:25;;;;;;;3.03;2.83;;;11.00;97.30;;;;;;4986298;28;20479;-83
2024/03/14 07:27:51;;;;;;;6.50;4.97;;;11.10;97.30;;;;;;4970374;28;20426;-83
2024/03/14 07:30:17;;;;;;;4.40;3.60;;;11.00;97.30;;;;;;4948446;28;20426;-83
2024/03/14 07:32:43;;;;;;;3.53;3.20;;;11.00;97.30;;;;;;4970932;28;20191;-83
2024/03/14 07:35:09;;;;;;;4.70;3.57;;;11.00;97.30;;;;;;4969041;28;20504;-83
2024/03/14 07:37:38;;;;;;;4.33;3.53;;;11.00;97.30;;;;;;4969389;28;20301;-83
2024/03/14 07:40:05;;;;;;;4.97;2.47;;;11.00;97.30;;;;;;4969958;28;20426;-83
2024/03/14 07:42:31;;;;;;;7.00;3.60;;;11.00;97.30;;;;;;4962731;28;20948;-83
2024/03/14 07:44:57;;;;;;;9.30;4.63;;;11.00;97.30;;;;;;4970159;28;20580;-83
2024/03/14 07:47:25;;;;;;;5.70;3.37;;;11.00;97.30;;;;;;4973506;28;20433;-83
2024/03/14 07:49:51;;;;;;;1.87;1.73;;;11.00;97.30;;;;;;4973595;28;20444;-83
2024/03/14 07:52:17;;;;;;;9.80;3.03;;;11.00;97.30;;;;;;4974069;28;20429;-82
2024/03/14 07:54:45;;;;;;;5.77;5.20;;;11.00;97.30;;;;;;4973374;28;20796;-83
2024/03/14 07:57:13;;;;;;;4.97;3.87;;;11.00;97.30;;;;;;4973743;28;20182;-83
2024/03/14 07:59:39;;;;;;;14.93;4.40;;;11.00;97.30;;;;;;4973681;28;20524;-84
2024/03/14 08:02:07;;;;;;;7.43;3.80;;;11.10;97.30;;;;;;4973106;28;20469;-83
2024/03/14 08:04:41;;;;;;;2.60;2.50;;;11.10;97.30;;;;;;4974408;28;20454;-83
2024/03/14 08:07:17;;;;;;;10.33;3.97;;;11.20;97.30;;;;;;4973284;28;20554;-83
2024/03/14 08:09:43;;;;;;;10.50;4.43;;;11.20;97.30;;;;;;4973777;28;20807;-83
2024/03/14 08:12:09;;;;;;;5.00;3.10;;;11.20;97.30;;;;;;4973565;28;20810;-83
2024/03/14 08:14:35;;;;;;;5.97;3.90;;;11.30;97.30;;;;;;4973025;28;20477;-83
2024/03/14 08:17:11;;;;;;;9.40;2.53;;;11.40;97.30;;;;;;4973137;28;20179;-83
2024/03/14 08:19:37;;;;;;;4.20;3.57;;;11.40;97.30;;;;;;4974731;28;20215;-83
2024/03/14 08:22:06;;;;;;;6.13;3.30;;;11.40;97.30;;;;;;4974607;28;20409;-83
2024/03/14 08:24:42;;;;;;;8.43;3.00;;;11.50;97.30;;;;;;4973736;28;20234;-83
2024/03/14 08:27:09;;;;;;;4.53;4.23;;;11.60;97.30;;;;;;4975238;28;20843;-83
2024/03/14 08:29:35;;;;;;;2.23;2.03;;;11.60;97.30;;;;;;4973263;28;20422;-83
2024/03/14 08:32:03;;;;;;;2.80;2.60;;;11.70;97.30;;;;;;4974444;28;20413;-83
2024/03/14 08:34:29;;;;;;;4.37;2.90;;;11.80;97.30;;;;;;4972717;28;20882;-83
2024/03/14 08:36:58;;;;;;;5.37;3.07;;;11.80;97.30;;;;;;4972878;28;20421;-83
2024/03/14 08:39:26;;;;;;;6.60;2.63;;;11.80;97.30;;;;;;4962080;28;20225;-83
2024/03/14 08:41:52;;;;;;;6.77;3.83;;;11.80;97.30;;;;;;4987123;28;21014;-83
2024/03/14 08:44:17;;;;;;;4.43;3.27;;;11.80;97.30;;;;;;4976015;28;20516;-84
2024/03/14 08:46:43;;;;;;;6.83;4.10;;;11.80;97.30;;;;;;4964360;28;20513;-83
2024/03/14 08:49:09;;;;;;;4.83;3.73;;;11.80;97.30;;;;;;4973208;28;20186;-82
2024/03/14 08:51:37;;;;;;;3.67;2.63;;;11.80;97.30;;;;;;4955101;28;20191;-83
2024/03/14 08:56:48;;;;;;;9.73;3.43;;;11.80;97.30;;;;;;4958125;28;20516;-83
2024/03/14 08:59:15;;;;;;;4.83;2.60;;;11.80;97.30;;;;;;4973816;28;20981;-83
2024/03/14 09:01:44;;;;;;;8.03;3.40;;;11.80;97.30;;;;;;4954272;28;20493;-83
2024/03/14 09:04:10;;;;;;;2.20;2.00;;;11.80;97.30;;;;;;4954081;28;20446;-83
2024/03/14 09:06:36;;;;;;;3.73;3.23;;;11.80;97.30;;;;;;4963131;28;20422;-83
2024/03/14 09:09:04;;;;;;;3.00;2.70;;;11.80;97.30;;;;;;4967410;28;20429;-83
2024/03/14 09:11:32;;;;;;;8.80;3.40;;;11.80;97.30;;;;;;4973082;28;20533;-82
2024/03/14 09:14:06;;;;;;;2.80;1.53;;;11.80;97.30;;;;;;4960784;28;20474;-83
2024/03/14 09:16:32;;;;;;;7.33;3.60;;;11.80;97.30;;;;;;4955894;28;20473;-83
2024/03/14 09:18:58;;;;;;;4.80;1.93;;;11.80;97.30;;;;;;4969230;28;20425;-83
2024/03/14 09:21:28;;;;;;;1.67;1.57;;;11.90;97.30;;;;;;4956247;28;20509;-83
2024/03/14 09:23:53;;;;;;;2.23;1.83;;;11.90;97.30;;;;;;4967868;28;20665;-83
2024/03/14 09:26:20;;;;;;;9.20;2.80;;;11.90;97.30;;;;;;4965922;28;20533;-84
2024/03/14 09:28:47;;;;;;;7.60;3.07;;;12.00;97.30;;;;;;4946675;28;20415;-83
2024/03/14 09:31:13;;;;;;;4.73;2.27;;;12.00;97.30;;;;;;4968794;28;20509;-83
2024/03/14 09:33:39;;;;;;;2.30;2.10;;;12.10;97.30;;;;;;4951635;28;20515;-83
2024/03/14 09:36:09;;;;;;;15.57;6.73;;;12.10;97.30;;;;;;4943504;28;20282;-83
2024/03/14 09:38:35;;;;;;;11.03;3.10;;;12.10;97.30;;;;;;4967795;28;20832;-83
2024/03/14 09:41:00;;;;;;;4.83;3.40;;;12.10;97.30;;;;;;4961978;28;20419;-83
2024/03/14 09:43:26;;;;;;;2.63;2.43;;;12.10;97.30;;;;;;4953028;28;20253;-83
2024/03/14 09:45:54;;;;;;;4.67;2.40;;;12.20;97.30;;;;;;4954778;28;20628;-83
2024/03/14 09:48:21;;;;;;;4.97;3.20;;;12.20;97.30;;;;;;4939220;28;20427;-83
2024/03/14 09:50:51;;;;;;;3.37;2.50;;;12.20;97.30;;;;;;4961133;28;20837;-84
2024/03/14 09:53:20;;;;;;;3.83;2.17;;;12.20;97.30;;;;;;4953937;28;20491;-83
2024/03/14 09:55:46;;;;;;;3.63;2.90;;;12.20;97.30;;;;;;4956564;28;20482;-83
2024/03/14 09:58:14;;;;;;;5.17;2.57;;;12.20;97.30;;;;;;4957525;28;20415;-83
2024/03/14 10:00:40;;;;;;;2.40;2.20;;;12.20;97.30;;;;;;4957422;28;20434;-83
2024/03/14 10:03:07;;;;;;;7.47;3.17;;;12.20;97.30;;;;;;4948038;28;20737;-83
2024/03/14 10:05:35;;;;;;;3.53;1.97;;;12.30;97.30;;;;;;4961191;28;20802;-83
2024/03/14 10:08:02;;;;;;;10.13;3.70;;;12.30;97.30;;;;;;4961019;28;20422;-83
2024/03/14 10:10:34;;;;;;;5.50;2.40;;;12.30;97.30;;;;;;4961509;28;20442;-83
2024/03/14 10:12:59;;;;;;;7.37;3.10;;;12.30;97.30;;;;;;4968471;28;20442;-84
2024/03/14 10:15:25;;;;;;;5.10;3.70;;;12.30;97.30;;;;;;4961389;28;20467;-83
2024/03/14 10:17:51;;;;;;;8.47;3.73;;;12.30;97.30;;;;;;4961317;28;20583;-83
2024/03/14 10:20:17;;;;;;;11.00;4.03;;;12.40;97.30;;;;;;4968251;28;20434;-83
2024/03/14 10:22:44;;;;;;;4.40;2.57;;;12.40;97.30;;;;;;4952151;28;20179;-83
2024/03/14 10:25:23;;;;;;;8.63;3.93;;;12.40;97.30;;;;;;4968145;28;20839;-83
2024/03/14 10:27:51;;;;;;;4.93;2.60;;;12.50;97.30;;;;;;4957506;28;20781;-83
2024/03/14 10:30:18;;;;;;;5.50;4.17;;;12.50;97.30;;;;;;4950105;28;20423;-83
2024/03/14 10:32:47;;;;;;;7.27;2.90;;;12.60;97.30;;;;;;4952080;28;20434;-83
2024/03/14 10:35:14;;;;;;;3.07;2.87;;;12.60;97.30;;;;;;4968238;28;20849;-83
2024/03/14 10:37:41;;;;;;;6.30;3.60;;;12.60;97.30;;;;;;4963225;28;20429;-83
2024/03/14 10:40:20;;;;;;;3.30;3.10;;;12.60;97.30;;;;;;4963208;28;20419;-83
2024/03/14 10:42:49;;;;;;;17.63;3.00;;;12.70;97.30;;;;;;4957938;28;20428;-83
2024/03/14 10:45:16;;;;;;;5.30;3.10;;;12.70;97.30;;;;;;4949336;28;20453;-84
2024/03/14 10:47:42;;;;;;;8.97;4.40;;;12.70;97.30;;;;;;4951943;28;20478;-83
2024/03/14 10:50:16;;;;;;;5.80;3.50;;;12.70;97.30;;;;;;4936303;28;20483;-82
2024/03/14 10:52:45;;;;;;;6.70;3.53;;;12.80;97.30;;;;;;4958920;28;20822;-83
2024/03/14 10:55:14;;;;;;;6.37;3.00;;;12.80;97.30;;;;;;4948817;28;20463;-83
2024/03/14 10:57:41;;;;;;;3.77;2.77;;;12.80;97.30;;;;;;4965742;28;20515;-82
2024/03/14 11:00:14;;;;;;;5.97;3.60;;;12.80;97.30;;;;;;4957933;28;20759;-83
2024/03/14 11:02:42;;;;;;;4.40;3.10;;;12.90;97.30;;;;;;4960576;28;20866;-83
2024/03/14 11:05:12;;;;;;;9.10;4.30;;;12.80;97.30;;;;;;4961142;28;20514;-83
2024/03/14 11:07:42;;;;;;;9.10;4.50;;;12.90;97.30;;;;;;4966116;28;20807;-83
2024/03/14 11:10:17;;;;;;;7.17;4.67;;;12.90;97.30;;;;;;4960252;28;20966;-83
2024/03/14 11:12:46;;;;;;;11.37;4.33;;;13.00;97.30;;;;;;4967043;28;20426;-84
2024/03/14 11:15:16;;;;;;;7.20;3.80;;;13.10;97.30;;;;;;4949703;28;20495;-83
2024/03/14 11:17:43;;;;;;;6.73;2.80;;;13.10;97.30;;;;;;4945596;28;20419;-83
2024/03/14 11:20:18;;;;;;;5.10;4.20;;;13.10;97.30;;;;;;4961577;28;20425;-83
2024/03/14 11:22:45;;;;;;;7.93;4.30;;;13.20;97.30;;;;;;4958254;28;20493;-83
2024/03/14 11:25:17;;;;;;;6.57;4.23;;;13.20;97.30;;;;;;4959660;28;20471;-83
2024/03/14 11:27:45;;;;;;;7.60;4.43;;;13.20;97.30;;;;;;4948150;28;20433;-82
2024/03/14 11:30:19;;;;;;;4.67;4.07;;;13.30;97.30;;;;;;4960719;28;20534;-83
2024/03/14 11:32:55;;;;;;;5.03;2.90;;;13.20;97.30;;;;;;4955038;28;20418;-83
2024/03/14 11:35:28;;;;;;;6.33;2.57;;;13.20;97.30;;;;;;4962578;28;20473;-82
2024/03/14 11:37:54;;;;;;;5.93;3.10;;;13.30;97.30;;;;;;4947018;28;20946;-83
2024/03/14 11:40:20;;;;;;;5.13;2.33;;;13.40;97.30;;;;;;4950196;28;20928;-83
2024/03/14 11:42:51;;;;;;;2.70;2.50;;;13.40;97.30;;;;;;4954270;28;20941;-83
2024/03/14 11:45:17;;;;;;;7.00;4.30;;;13.50;97.30;;;;;;4940222;28;20443;-83
2024/03/14 11:47:43;;;;;;;4.70;2.57;;;13.50;97.30;;;;;;4944449;28;20514;-83
2024/03/14 11:50:09;;;;;;;2.80;2.60;;;13.40;97.30;;;;;;4965691;28;20208;-83
2024/03/14 11:52:39;;;;;;;3.87;2.30;;;13.50;97.30;;;;;;4963063;28;20502;-83
2024/03/14 11:55:08;;;;;;;7.73;2.93;;;13.50;97.30;;;;;;4961651;28;20467;-83
2024/03/14 11:57:33;;;;;;;3.50;2.37;;;13.50;97.30;;;;;;4957059;28;20438;-83
2024/03/14 12:00:08;;;;;;;5.43;3.53;;;13.50;97.30;;;;;;4955411;28;20933;-83
2024/03/14 12:02:34;;;;;;;5.00;4.00;;;13.60;97.30;;;;;;4963955;28;20182;-83
2024/03/14 12:05:03;;;;;;;4.97;2.73;;;13.70;97.30;;;;;;4965376;28;20450;-82
2024/03/14 12:07:30;;;;;;;2.57;2.37;;;13.80;97.30;;;;;;4958742;28;20654;-82
2024/03/14 12:09:57;;;;;;;2.20;1.80;;;13.90;97.30;;;;;;4971148;28;20427;-84
2024/03/14 12:12:23;;;;;;;7.97;3.50;;;13.90;97.30;;;;;;4971528;28;20951;-83
2024/03/14 12:14:55;;;;;;;5.80;4.87;;;13.80;97.30;;;;;;4971364;28;20470;-83
2024/03/14 12:17:20;;;;;;;2.40;2.00;;;13.80;97.30;;;;;;4966136;28;20423;-82
2024/03/14 12:19:46;;;;;;;2.20;2.03;;;13.80;97.30;;;;;;4955465;28;20410;-83
2024/03/14 12:22:11;;;;;;;4.17;3.40;;;13.80;97.30;;;;;;4961322;28;20613;-82
2024/03/14 12:24:37;;;;;;;3.90;2.30;;;13.80;97.30;;;;;;4960038;28;20215;-83
2024/03/14 12:27:03;;;;;;;2.47;1.90;;;13.90;97.30;;;;;;4962039;28;20184;-83
2024/03/14 12:29:29;;;;;;;3.20;3.03;;;14.00;97.30;;;;;;4978940;28;20195;-82
2024/03/14 12:31:55;;;;;;;2.30;1.83;;;14.00;97.30;;;;;;4988556;28;20206;-83
2024/03/14 12:34:22;;;;;;;5.07;1.73;;;14.10;97.30;;;;;;4988157;28;20203;-83
2024/03/14 12:36:51;;;;;;;4.40;2.30;;;14.10;97.30;;;;;;4976292;28;20861;-83
2024/03/14 12:39:17;;;;;;;5.23;2.90;;;14.10;97.30;;;;;;4970435;28;20419;-83
2024/03/14 12:41:42;;;;;;;1.00;0.90;;;14.10;97.30;;;;;;4981110;28;21064;-82
2024/03/14 12:44:09;;;;;;;4.60;3.20;;;14.10;97.30;;;;;;4974964;28;20266;-83
2024/03/14 12:46:38;;;;;;;3.07;2.63;;;14.20;97.30;;;;;;4979497;28;20186;-83
2024/03/14 12:49:07;;;;;;;5.27;4.03;;;14.20;97.30;;;;;;4969170;28;20433;-83
2024/03/14 12:51:33;;;;;;;4.50;3.53;;;14.20;97.30;;;;;;4974802;28;20441;-83
2024/03/14 12:54:00;;;;;;;4.67;3.40;;;14.20;97.30;;;;;;4985002;28;20519;-85
2024/03/14 12:56:27;;;;;;;2.60;1.90;;;14.20;97.30;;;;;;4984895;28;20203;-84
2024/03/14 12:58:54;;;;;;;9.03;2.47;;;14.20;97.30;;;;;;4967193;28;20422;-85
2024/03/14 13:01:30;;;;;;;2.77;2.30;;;14.30;97.30;;;;;;4977317;28;20434;-83
2024/03/14 13:04:07;;;;;;;2.70;2.13;;;14.30;97.30;;;;;;4954384;28;20422;-83
2024/03/14 13:06:33;;;;;;;4.30;2.10;;;14.40;97.30;;;;;;4949080;28;20427;-84
2024/03/14 13:09:20;;;;;;;3.93;1.87;;;14.40;97.30;;;;;;4953827;28;20431;-83
2024/03/14 13:12:04;;;;;;;6.77;2.73;;;14.40;97.30;;;;;;4968907;28;20426;-83
2024/03/14 13:14:29;;;;;;;2.30;2.00;;;14.50;97.30;;;;;;4968911;28;20998;-84
2024/03/14 13:17:04;;;;;;;3.13;1.67;;;14.40;97.30;;;;;;4954808;28;20424;-83
2024/03/14 13:19:32;;;;;;;2.40;1.93;;;14.40;97.30;;;;;;4964649;28;20619;-83
2024/03/14 13:21:58;;;;;;;1.97;1.87;;;14.40;97.30;;;;;;4942243;28;20419;-83
2024/03/14 13:24:24;;;;;;;2.73;1.87;;;14.40;97.30;;;;;;4963238;28;20960;-83
2024/03/14 13:26:59;;;;;;;4.07;2.67;;;14.40;97.30;;;;;;4960621;28;20426;-83
2024/03/14 13:29:25;;;;;;;2.60;2.13;;;14.40;97.30;;;;;;4965941;28;20445;-82
2024/03/14 13:31:53;;;;;;;4.30;2.00;;;14.40;97.30;;;;;;4962193;28;20913;-83
2024/03/14 13:34:20;;;;;;;2.50;1.50;;;14.40;97.30;;;;;;4964819;28;20588;-82
2024/03/14 13:36:47;;;;;;;5.50;2.50;;;14.50;97.30;;;;;;4974600;28;20425;-83
2024/03/14 13:39:14;;;;;;;2.93;2.43;;;14.50;97.30;;;;;;4965511;28;20419;-82
2024/03/14 13:41:43;;;;;;;3.50;1.73;;;14.50;97.30;;;;;;4966962;28;20426;-84
2024/03/14 13:44:10;;;;;;;2.30;1.73;;;14.60;97.30;;;;;;4962871;28;20424;-83
2024/03/14 13:46:41;;;;;;;1.27;1.20;;;14.70;97.30;;;;;;4967909;28;20801;-83
2024/03/14 13:49:07;;;;;;;1.27;1.17;;;14.80;97.30;;;;;;4971801;28;20415;-83
2024/03/14 13:51:33;;;;;;;2.10;1.43;;;14.80;97.30;;;;;;4967036;28;20690;-82
2024/03/14 13:54:01;;;;;;;1.63;1.53;;;14.80;97.30;;;;;;4967817;28;21003;-83
2024/03/14 13:56:28;;;;;;;2.13;1.43;;;14.80;97.30;;;;;;4974719;28;20579;-83
2024/03/14 13:58:57;;;;;;;1.10;1.00;;;14.80;97.30;;;;;;4967566;28;20421;-83
2024/03/14 14:01:25;;;;;;;1.40;1.33;;;14.90;97.30;;;;;;4965198;28;20450;-83
2024/03/14 14:03:55;;;;;;;1.37;1.20;;;15.00;97.30;;;;;;4962062;28;20476;-82
2024/03/14 14:06:24;;;;;;;1.73;1.67;;;15.00;97.30;;;;;;4969813;28;20581;-81
2024/03/14 14:08:50;;;;;;;2.00;1.03;;;15.10;97.30;;;;;;4950859;28;20492;-83
2024/03/14 14:11:17;;;;;;;1.00;0.80;;;15.10;97.30;;;;;;4970665;28;20413;-83
2024/03/14 14:13:46;;;;;;;1.40;1.30;;;15.30;97.30;;;;;;4962990;28;20428;-83
2024/03/14 14:16:13;;;;;;;0.93;0.90;;;15.30;97.30;;;;;;4969423;28;20955;-82
2024/03/14 14:18:39;;;;;;;1.60;1.27;;;15.30;97.30;;;;;;4967503;28;20952;-83
2024/03/14 14:21:05;;;;;;;3.03;1.83;;;15.40;97.30;;;;;;4956762;28;20698;-83
2024/03/14 14:23:32;;;;;;;1.30;1.20;;;15.50;97.30;;;;;;4962667;28;20498;-83
2024/03/14 14:25:58;;;;;;;1.63;1.50;;;15.70;97.30;;;;;;4956135;28;20481;-83
2024/03/14 14:28:24;;;;;;;1.10;1.00;;;15.60;96.70;;;;;;4964633;28;20888;-83
2024/03/14 14:30:49;;;;;;;1.90;1.30;;;15.50;96.90;;;;;;4952823;28;20332;-83
2024/03/14 14:33:16;;;;;;;1.90;1.90;;;15.60;97.00;;;;;;4961295;28;20235;-83
2024/03/14 14:35:44;;;;;;;1.10;1.00;;;15.60;97.00;;;;;;4944224;28;20210;-83
2024/03/14 14:38:10;;;;;;;1.30;1.20;;;15.70;97.30;;;;;;4949734;28;20494;-83
2024/03/14 14:40:36;;;;;;;1.60;1.50;;;16.00;97.10;;;;;;4964683;28;20510;-83
2024/03/14 14:43:02;;;;;;;0.90;0.80;;;16.20;96.50;;;;;;4964173;28;20856;-83
2024/03/14 14:45:27;;;;;;;2.83;1.63;;;16.50;95.50;;;;;;4968721;28;20591;-83
2024/03/14 14:47:54;;;;;;;1.83;1.30;;;16.90;95.60;;;;;;4966933;28;20202;-83
2024/03/14 14:50:20;;;;;;;1.10;1.00;;;16.80;94.00;;;;;;4946146;28;20254;-83
2024/03/14 14:52:46;;;;;;;1.90;0.80;;;16.50;95.00;;;;;;4963525;28;20929;-80
2024/03/14 14:55:12;;;;;;;2.17;1.30;;;16.10;95.80;;;;;;4945310;28;20278;-83
2024/03/14 14:57:42;;;;;;;1.40;1.33;;;15.80;96.80;;;;;;4966328;28;20770;-83
2024/03/14 15:00:11;;;;;;;1.07;1.00;;;15.60;97.20;;;;;;4965039;28;20451;-82
2024/03/14 15:02:37;;;;;;;1.10;0.90;;;15.50;97.30;;;;;;4963130;28;20422;-82
2024/03/14 15:05:03;;;;;;;1.80;1.10;;;15.40;97.30;;;;;;4952679;28;20992;-83
2024/03/14 15:07:28;;;;;;;1.63;1.53;;;15.40;97.30;;;;;;4963371;28;20192;-83
2024/03/14 15:09:54;;;;;;;2.93;2.60;;;15.40;97.30;;;;;;4952297;28;20925;-83
2024/03/14 15:12:19;;;;;;;2.50;1.33;;;15.50;97.30;;;;;;4964069;28;20183;-82
2024/03/14 15:14:45;;;;;;;2.50;1.77;;;15.50;97.30;;;;;;4954288;28;20238;-83
2024/03/14 15:17:11;;;;;;;1.70;1.63;;;15.70;97.30;;;;;;4960485;28;20176;-83
2024/03/14 15:19:40;;;;;;;18.93;1.30;;;16.10;96.70;;;;;;4962206;28;20176;-84
2024/03/14 15:22:09;;;;;;;1.33;1.10;;;16.00;96.90;;;;;;4947874;28;21651;-83
2024/03/14 15:24:36;;;;;;;1.80;1.70;;;16.00;96.80;;;;;;4966487;28;20515;-83
2024/03/14 15:27:07;;;;;;;1.80;1.70;;;15.90;96.90;;;;;;4964760;28;20792;-83
2024/03/14 15:29:39;;;;;;;1.60;0.90;;;16.30;96.80;;;;;;4969308;28;20461;-83
2024/03/14 15:32:05;;;;;;;2.40;1.67;;;16.70;95.90;;;;;;4952690;28;20434;-83
2024/03/14 15:34:32;;;;;;;2.27;1.43;;;16.80;95.40;;;;;;4965005;28;20536;-83
2024/03/14 15:37:00;;;;;;;1.40;1.30;;;16.40;95.60;;;;;;4958738;28;20428;-83
2024/03/14 15:39:29;;;;;;;2.40;1.90;;;16.20;96.30;;;;;;4969931;28;20442;-83
2024/03/14 15:41:55;;;;;;;1.40;1.30;;;16.10;96.80;;;;;;4962792;28;20482;-82
2024/03/14 15:44:22;;;;;;;1.50;1.20;;;15.90;97.00;;;;;;4967131;28;20429;-83
2024/03/14 15:46:48;;;;;;;1.30;1.20;;;15.90;97.20;;;;;;4970936;28;20837;-82
2024/03/14 15:49:13;;;;;;;1.87;1.17;;;16.00;97.20;;;;;;4967493;28;20635;-83
2024/03/14 15:51:39;;;;;;;4.30;1.93;;;16.20;97.00;;;;;;4955626;28;20513;-83
2024/03/14 15:54:04;;;;;;;1.93;1.67;;;16.60;96.10;;;;;;4968826;28;20699;-83
2024/03/14 15:56:30;;;;;;;5.17;1.40;;;16.80;95.70;;;;;;4965117;28;20171;-83
2024/03/14 15:58:56;;;;;;;2.03;1.70;;;17.20;95.30;;;;;;4961871;28;20792;-83
2024/03/14 16:01:22;;;;;;;2.40;2.20;;;17.70;94.20;;;;;;4967892;28;20599;-83
2024/03/14 16:03:48;;;;;;;2.00;1.63;;;17.80;93.80;;;;;;4962645;28;20178;-82
2024/03/14 16:06:15;;;;;;;2.50;1.47;;;17.80;93.80;;;;;;4969277;28;20445;-83
2024/03/14 16:08:42;;;;;;;1.40;1.20;;;17.50;93.70;;;;;;4969909;28;20429;-83
2024/03/14 16:11:08;;;;;;;1.90;1.83;;;17.30;94.50;;;;;;4973113;28;20866;-83
2024/03/14 16:13:35;;;;;;;2.83;2.00;;;17.50;94.20;;;;;;4969119;28;20469;-84
2024/03/14 16:16:04;;;;;;;5.50;2.20;;;17.90;93.10;;;;;;4958377;28;20210;-83
2024/03/14 16:18:30;;;;;;;2.40;1.30;;;17.60;93.10;;;;;;4977102;28;20477;-83
2024/03/14 16:20:56;;;;;;;1.57;1.10;;;16.90;94.00;;;;;;4967202;28;20465;-83
2024/03/14 16:23:22;;;;;;;2.70;1.87;;;16.50;95.20;;;;;;4965463;28;20949;-83
2024/03/14 16:25:47;;;;;;;1.40;1.30;;;16.00;96.30;;;;;;4960972;28;20560;-83
2024/03/14 16:28:15;;;;;;;4.00;2.30;;;15.80;97.20;;;;;;4954433;28;20191;-83
2024/03/14 16:30:42;;;;;;;1.77;1.77;;;15.60;97.30;;;;;;4974708;28;20209;-82
2024/03/14 16:33:09;;;;;;;2.27;1.97;;;15.50;97.30;;;;;;4959575;28;20430;-83
2024/03/14 16:35:35;;;;;;;1.93;1.83;;;15.40;97.30;;;;;;4972481;28;20553;-83
2024/03/14 16:38:01;;;;;;;4.03;1.63;;;15.30;97.30;;;;;;4959734;28;20513;-82
2024/03/14 16:40:28;;;;;;;4.07;2.73;;;15.20;97.30;;;;;;4976122;28;20418;-83
2024/03/14 16:42:54;;;;;;;1.37;1.27;;;15.10;97.30;;;;;;4961531;28;20416;-83
2024/03/14 16:45:20;;;;;;;1.53;1.43;;;15.00;97.30;;;;;;4967930;28;20455;-82
2024/03/14 16:47:46;;;;;;;3.07;1.83;;;14.90;97.30;;;;;;4972605;28;20438;-83
2024/03/14 16:50:12;;;;;;;2.40;1.73;;;14.80;97.30;;;;;;4962125;28;20429;-83
2024/03/14 16:52:38;;;;;;;1.13;1.03;;;14.70;97.30;;;;;;4971582;28;20269;-83
2024/03/14 16:55:04;;;;;;;1.80;1.30;;;14.60;97.30;;;;;;4959963;28;20381;-83
2024/03/14 16:57:30;;;;;;;3.80;3.37;;;14.60;97.30;;;;;;4969561;28;20432;-83
2024/03/14 16:59:56;;;;;;;3.53;3.00;;;14.50;97.30;;;;;;4956977;28;20418;-84
2024/03/14 17:02:22;;;;;;;2.37;1.90;;;14.40;97.30;;;;;;4963829;28;20227;-83
2024/03/14 17:04:50;;;;;;;4.60;1.63;;;14.30;97.30;;;;;;4961031;28;20206;-83
2024/03/14 17:07:16;;;;;;;1.63;1.53;;;14.20;97.30;;;;;;4971082;28;20233;-83
2024/03/14 17:09:42;;;;;;;3.10;2.00;;;14.10;97.30;;;;;;4957714;28;20430;-83
2024/03/14 17:12:07;;;;;;;1.47;1.37;;;14.00;97.30;;;;;;4972676;28;20178;-83
2024/03/14 17:14:33;;;;;;;1.50;1.40;;;14.00;97.30;;;;;;4972322;28;20469;-83
2024/03/14 17:16:58;;;;;;;2.00;1.90;;;13.90;97.30;;;;;;4957135;28;20567;-84
2024/03/14 17:19:24;;;;;;;2.77;2.10;;;13.70;97.30;;;;;;4970247;28;20183;-83
2024/03/14 17:21:50;;;;;;;2.10;1.67;;;13.60;97.30;;;;;;4960188;28;20337;-84
2024/03/14 17:24:16;;;;;;;2.80;1.63;;;13.50;97.30;;;;;;4956098;28;20187;-83
2024/03/14 17:26:42;;;;;;;1.90;1.80;;;13.40;97.30;;;;;;4973000;28;20738;-83
2024/03/14 17:29:11;;;;;;;3.07;1.80;;;13.30;97.30;;;;;;4970773;28;20521;-83
2024/03/14 17:31:40;;;;;;;2.33;2.13;;;13.20;97.30;;;;;;4972024;28;20178;-83
2024/03/14 17:34:07;;;;;;;2.50;2.03;;;13.00;97.30;;;;;;4959264;28;21017;-83
2024/03/14 17:36:33;;;;;;;1.60;1.50;;;13.00;97.30;;;;;;4968611;28;20485;-83
2024/03/14 17:38:58;;;;;;;4.37;2.90;;;12.90;97.30;;;;;;4960092;28;20430;-83
2024/03/14 17:41:24;;;;;;;1.33;1.27;;;12.80;97.30;;;;;;4971785;28;20179;-83
2024/03/14 17:43:49;;;;;;;3.17;1.57;;;12.70;97.30;;;;;;4971628;28;20305;-83
2024/03/14 17:46:15;;;;;;;3.47;2.27;;;12.60;97.30;;;;;;4966249;28;20205;-83
2024/03/14 17:48:42;;;;;;;3.77;3.17;;;12.60;97.30;;;;;;4955113;28;20672;-83
2024/03/14 17:51:07;;;;;;;1.30;1.20;;;12.50;97.30;;;;;;4958508;28;20433;-83
2024/03/14 17:53:33;;;;;;;2.60;1.97;;;12.50;97.30;;;;;;4975115;28;21020;-83
2024/03/14 17:55:59;;;;;;;2.40;1.80;;;12.40;97.30;;;;;;4978592;28;20212;-83
2024/03/14 17:58:24;;;;;;;3.73;2.83;;;12.40;97.30;;;;;;4979412;28;20501;-83